Time;durP1;ratioP1;P1;durP2;ratioP2;P2;SDS_P1;SDS_P2;PMS_P1;PMS_P2;Temp;Humidity;BMP_temperature;BMP_pressure;BME280_temperature;BME280_humidity;BME280_pressure;Samples;Min_cycle;Max_cycle;Signal;HPM_P1;HPM_P2
2023/09/15 00:02:12;;;;;;;5.38;1.98;;;;;;;;;;5053887;28;20024;-69
2023/09/15 00:04:42;;;;;;;9.30;2.92;;;;;;;;;;5054198;28;20032;-68
2023/09/15 00:07:08;;;;;;;7.40;1.85;;;;;;;;;;5053901;28;20035;-68
2023/09/15 00:09:34;;;;;;;6.00;2.30;;;;;;;;;;5054081;28;20032;-68
2023/09/15 00:12:00;;;;;;;6.32;1.88;;;;;;;;;;5052150;28;20047;-68
2023/09/15 00:14:26;;;;;;;7.15;2.20;;;;;;;;;;5052946;28;20043;-69
2023/09/15 00:16:53;;;;;;;5.70;2.00;;;;;;;;;;5053585;28;20028;-69
2023/09/15 00:19:20;;;;;;;7.22;2.42;;;;;;;;;;5054675;28;20245;-68
2023/09/15 00:21:47;;;;;;;6.90;2.30;;;;;;;;;;5058236;28;20115;-68
2023/09/15 00:24:14;;;;;;;4.28;1.73;;;;;;;;;;5056401;28;20024;-68
2023/09/15 00:26:40;;;;;;;6.07;2.00;;;;;;;;;;5058465;28;20063;-68
2023/09/15 00:29:07;;;;;;;5.90;1.80;;;;;;;;;;5057638;28;20032;-68
2023/09/15 00:31:34;;;;;;;6.05;1.88;;;;;;;;;;5057453;28;20085;-68
2023/09/15 00:34:00;;;;;;;6.43;2.35;;;;;;;;;;5057823;28;20031;-69
2023/09/15 00:36:26;;;;;;;6.78;2.20;;;;;;;;;;5057061;28;20040;-68
2023/09/15 00:38:52;;;;;;;6.05;2.08;;;;;;;;;;5058092;28;20043;-68
2023/09/15 00:41:18;;;;;;;4.43;2.05;;;;;;;;;;5057878;28;20032;-68
2023/09/15 00:43:44;;;;;;;5.30;2.00;;;;;;;;;;5056835;28;20037;-68
2023/09/15 00:46:11;;;;;;;6.70;1.88;;;;;;;;;;5055804;28;20924;-68
2023/09/15 00:48:39;;;;;;;5.35;1.83;;;;;;;;;;5058210;28;20045;-68
2023/09/15 00:51:07;;;;;;;6.45;1.90;;;;;;;;;;5055443;28;20063;-69
2023/09/15 00:53:33;;;;;;;6.75;1.92;;;;;;;;;;5056159;28;21385;-69
2023/09/15 00:56:00;;;;;;;4.07;1.58;;;;;;;;;;5055036;28;20044;-68
2023/09/15 00:58:26;;;;;;;6.68;1.90;;;;;;;;;;5053186;28;20028;-68
2023/09/15 01:00:52;;;;;;;4.28;1.70;;;;;;;;;;5056305;28;20043;-68
2023/09/15 01:03:20;;;;;;;6.78;2.13;;;;;;;;;;5054163;28;21797;-68
2023/09/15 01:05:47;;;;;;;6.20;2.13;;;;;;;;;;5055084;28;20035;-68
2023/09/15 01:08:13;;;;;;;4.75;2.00;;;;;;;;;;5057236;28;21757;-68
2023/09/15 01:10:39;;;;;;;6.35;1.90;;;;;;;;;;5056372;28;20540;-68
2023/09/15 01:13:05;;;;;;;6.25;2.22;;;;;;;;;;5057359;28;20040;-68
2023/09/15 01:15:37;;;;;;;6.25;2.45;;;;;;;;;;5056995;28;21141;-68
2023/09/15 01:18:17;;;;;;;7.93;2.30;;;;;;;;;;5057196;28;20032;-68
2023/09/15 01:20:52;;;;;;;4.80;1.95;;;;;;;;;;5055720;28;21355;-69
2023/09/15 01:23:37;;;;;;;5.90;2.20;;;;;;;;;;5055819;28;20049;-69
2023/09/15 01:26:11;;;;;;;10.00;2.17;;;;;;;;;;5055924;28;20134;-68
2023/09/15 01:28:37;;;;;;;;;;;;;;;;;;5056234;28;20036;-69
2023/09/15 01:31:03;;;;;;;7.35;2.00;;;;;;;;;;5054512;28;20057;-68
2023/09/15 01:33:30;;;;;;;5.93;2.60;;;;;;;;;;5057119;28;20020;-68
2023/09/15 01:35:57;;;;;;;5.82;1.80;;;;;;;;;;5056584;28;20039;-69
2023/09/15 01:38:23;;;;;;;9.02;2.13;;;;;;;;;;5055856;28;20028;-68
2023/09/15 01:40:49;;;;;;;4.68;2.17;;;;;;;;;;5057004;28;20077;-69
2023/09/15 01:43:15;;;;;;;6.70;2.10;;;;;;;;;;5057349;28;20044;-69
2023/09/15 01:45:41;;;;;;;6.55;2.13;;;;;;;;;;5053262;28;20032;-69
2023/09/15 01:48:08;;;;;;;7.05;1.92;;;;;;;;;;5054270;28;20060;-68
2023/09/15 01:50:34;;;;;;;4.50;1.85;;;;;;;;;;5055925;28;20104;-68
2023/09/15 01:53:01;;;;;;;6.10;2.10;;;;;;;;;;5055403;28;20715;-68
2023/09/15 01:55:27;;;;;;;8.60;2.20;;;;;;;;;;5055575;28;20032;-68
2023/09/15 01:57:53;;;;;;;6.25;2.15;;;;;;;;;;5056486;28;20154;-68
2023/09/15 02:00:19;;;;;;;4.15;2.17;;;;;;;;;;5057060;28;20569;-68
2023/09/15 02:02:45;;;;;;;5.90;2.00;;;;;;;;;;5055965;28;20040;-68
2023/09/15 02:05:15;;;;;;;5.30;1.88;;;;;;;;;;5056183;28;20040;-68
2023/09/15 02:07:41;;;;;;;6.50;2.28;;;;;;;;;;5056505;28;20070;-69
2023/09/15 02:10:08;;;;;;;5.57;1.92;;;;;;;;;;5056077;28;20154;-68
2023/09/15 02:12:34;;;;;;;6.40;2.28;;;;;;;;;;5055641;28;20079;-68
2023/09/15 02:15:00;;;;;;;8.30;2.33;;;;;;;;;;5057143;28;20066;-68
2023/09/15 02:17:26;;;;;;;7.32;1.95;;;;;;;;;;5054974;28;20070;-69
2023/09/15 02:19:52;;;;;;;7.35;2.30;;;;;;;;;;5056226;28;20061;-68
2023/09/15 02:22:18;;;;;;;6.60;2.05;;;;;;;;;;5055241;28;20028;-68
2023/09/15 02:24:44;;;;;;;5.32;2.10;;;;;;;;;;5055532;28;20093;-69
2023/09/15 02:27:10;;;;;;;5.68;2.28;;;;;;;;;;5056122;28;20067;-69
2023/09/15 02:29:37;;;;;;;4.80;1.85;;;;;;;;;;5056274;28;20152;-68
2023/09/15 02:32:03;;;;;;;9.25;2.63;;;;;;;;;;5056427;28;20167;-68
2023/09/15 02:34:29;;;;;;;8.77;2.20;;;;;;;;;;5055752;28;20044;-69
2023/09/15 02:36:55;;;;;;;6.78;2.13;;;;;;;;;;5055865;28;20035;-68
2023/09/15 02:39:21;;;;;;;6.05;2.00;;;;;;;;;;5055267;28;20179;-68
2023/09/15 02:41:47;;;;;;;5.32;2.28;;;;;;;;;;5056620;28;20119;-68
2023/09/15 02:44:14;;;;;;;8.65;2.28;;;;;;;;;;5055245;28;20045;-69
2023/09/15 02:46:40;;;;;;;4.68;1.77;;;;;;;;;;5055408;28;20036;-68
2023/09/15 02:49:06;;;;;;;7.95;2.00;;;;;;;;;;5055688;28;21372;-68
2023/09/15 02:51:33;;;;;;;5.18;1.98;;;;;;;;;;5055946;28;20036;-68
2023/09/15 02:53:59;;;;;;;7.07;2.25;;;;;;;;;;5055678;28;20847;-68
2023/09/15 02:56:26;;;;;;;5.93;2.15;;;;;;;;;;5051002;28;20028;-68
2023/09/15 02:58:52;;;;;;;6.82;2.20;;;;;;;;;;5055500;28;20020;-68
2023/09/15 03:01:20;;;;;;;7.63;2.30;;;;;;;;;;5070450;28;20679;-68
2023/09/15 03:03:49;;;;;;;6.93;2.10;;;;;;;;;;5053354;28;20036;-68
2023/09/15 03:06:15;;;;;;;7.57;2.20;;;;;;;;;;5052012;28;20121;-68
2023/09/15 03:08:41;;;;;;;8.73;2.00;;;;;;;;;;5053307;28;20040;-68
2023/09/15 03:11:12;;;;;;;7.28;2.60;;;;;;;;;;5052721;28;20131;-68
2023/09/15 03:13:38;;;;;;;5.18;2.15;;;;;;;;;;5053915;28;20078;-68
2023/09/15 03:16:08;;;;;;;9.63;2.50;;;;;;;;;;5054539;28;21266;-69
2023/09/15 03:18:34;;;;;;;5.95;2.40;;;;;;;;;;5054230;28;20039;-68
2023/09/15 03:21:04;;;;;;;6.25;2.50;;;;;;;;;;5054393;28;20040;-68
2023/09/15 03:23:30;;;;;;;6.75;1.90;;;;;;;;;;5051604;28;20370;-68
2023/09/15 03:26:00;;;;;;;6.80;1.85;;;;;;;;;;5053835;28;20028;-68
2023/09/15 03:28:26;;;;;;;8.32;2.28;;;;;;;;;;5054297;28;20031;-68
2023/09/15 03:30:52;;;;;;;8.27;2.78;;;;;;;;;;5054599;28;20031;-68
2023/09/15 03:33:18;;;;;;;6.38;2.20;;;;;;;;;;5053942;28;20047;-68
2023/09/15 03:35:44;;;;;;;7.05;2.10;;;;;;;;;;5054167;28;20047;-68
2023/09/15 03:38:10;;;;;;;8.13;2.45;;;;;;;;;;5054139;28;20047;-68
2023/09/15 03:40:37;;;;;;;6.78;1.98;;;;;;;;;;5055222;28;20028;-68
2023/09/15 03:43:05;;;;;;;6.60;2.42;;;;;;;;;;5054336;28;20027;-68
2023/09/15 03:45:31;;;;;;;6.00;2.05;;;;;;;;;;5054400;28;20048;-68
2023/09/15 03:47:57;;;;;;;13.07;2.97;;;;;;;;;;5053649;28;20156;-68
2023/09/15 03:50:24;;;;;;;8.63;2.20;;;;;;;;;;5053801;28;20043;-68
2023/09/15 03:52:50;;;;;;;6.90;2.22;;;;;;;;;;5054063;28;20510;-68
2023/09/15 03:55:17;;;;;;;7.90;2.92;;;;;;;;;;5054520;28;20094;-68
2023/09/15 03:57:43;;;;;;;7.38;2.20;;;;;;;;;;5054932;28;20047;-68
2023/09/15 04:00:19;;;;;;;8.73;2.40;;;;;;;;;;5054091;28;20056;-68
2023/09/15 04:02:45;;;;;;;5.20;2.38;;;;;;;;;;5053485;28;20032;-68
2023/09/15 04:05:11;;;;;;;6.65;2.70;;;;;;;;;;5054588;28;20036;-68
2023/09/15 04:07:38;;;;;;;5.97;2.20;;;;;;;;;;5053133;28;20525;-68
2023/09/15 04:10:05;;;;;;;7.93;2.53;;;;;;;;;;5053217;28;20036;-67
2023/09/15 04:12:32;;;;;;;10.32;2.20;;;;;;;;;;5053715;28;20093;-68
2023/09/15 04:14:58;;;;;;;5.43;2.10;;;;;;;;;;5054425;28;20051;-69
2023/09/15 04:17:25;;;;;;;9.40;2.60;;;;;;;;;;5053949;28;20043;-68
2023/09/15 04:19:51;;;;;;;6.93;2.33;;;;;;;;;;5053803;28;20600;-68
2023/09/15 04:22:17;;;;;;;11.57;3.10;;;;;;;;;;5054112;28;20028;-68
2023/09/15 04:24:43;;;;;;;6.95;2.60;;;;;;;;;;5054983;28;20115;-68
2023/09/15 04:27:09;;;;;;;6.07;2.47;;;;;;;;;;5053704;28;20145;-68
2023/09/15 04:29:38;;;;;;;4.15;2.00;;;;;;;;;;5053311;28;21463;-68
2023/09/15 04:32:04;;;;;;;7.93;2.20;;;;;;;;;;5054439;28;20050;-68
2023/09/15 04:34:31;;;;;;;6.15;2.67;;;;;;;;;;5052920;28;20474;-68
2023/09/15 04:36:57;;;;;;;6.70;2.53;;;;;;;;;;5052980;28;20783;-68
2023/09/15 04:39:23;;;;;;;8.98;2.38;;;;;;;;;;5053126;28;21888;-68
2023/09/15 04:41:49;;;;;;;9.93;2.72;;;;;;;;;;5053581;28;20806;-68
2023/09/15 04:44:15;;;;;;;9.20;2.42;;;;;;;;;;5052687;28;20024;-68
2023/09/15 04:46:44;;;;;;;9.48;2.75;;;;;;;;;;5052575;28;20032;-68
2023/09/15 04:49:10;;;;;;;9.20;3.50;;;;;;;;;;5053171;28;20043;-68
2023/09/15 04:51:36;;;;;;;6.68;2.50;;;;;;;;;;5053003;28;20602;-68
2023/09/15 04:54:03;;;;;;;8.10;2.85;;;;;;;;;;5053579;28;20039;-68
2023/09/15 04:56:29;;;;;;;7.90;3.08;;;;;;;;;;5053368;28;20111;-68
2023/09/15 04:58:55;;;;;;;6.25;2.50;;;;;;;;;;5053428;28;20029;-68
2023/09/15 05:01:23;;;;;;;9.23;2.75;;;;;;;;;;5053318;28;20032;-69
2023/09/15 05:03:49;;;;;;;7.35;2.67;;;;;;;;;;5053149;28;20115;-68
2023/09/15 05:06:15;;;;;;;8.27;2.83;;;;;;;;;;5055440;28;21157;-68
2023/09/15 05:08:42;;;;;;;6.47;2.78;;;;;;;;;;5055306;28;20047;-68
2023/09/15 05:11:08;;;;;;;8.07;2.70;;;;;;;;;;5056106;28;20038;-68
2023/09/15 05:13:34;;;;;;;7.18;2.78;;;;;;;;;;5054300;28;20933;-68
2023/09/15 05:16:02;;;;;;;6.15;2.92;;;;;;;;;;5053669;28;20036;-68
2023/09/15 05:18:30;;;;;;;7.85;2.70;;;;;;;;;;5053556;28;20032;-68
2023/09/15 05:20:56;;;;;;;5.45;2.70;;;;;;;;;;5055196;28;20028;-68
2023/09/15 05:23:22;;;;;;;11.80;3.45;;;;;;;;;;5055680;28;20028;-68
2023/09/15 05:25:53;;;;;;;6.57;2.90;;;;;;;;;;5057030;28;20495;-68
2023/09/15 05:28:19;;;;;;;7.95;2.65;;;;;;;;;;5057142;28;20067;-68
2023/09/15 05:30:45;;;;;;;8.98;3.25;;;;;;;;;;5057011;28;20426;-68
2023/09/15 05:33:12;;;;;;;8.57;3.22;;;;;;;;;;5057333;28;20042;-68
2023/09/15 05:35:38;;;;;;;5.57;2.88;;;;;;;;;;5055743;28;20718;-68
2023/09/15 05:38:04;;;;;;;8.45;3.75;;;;;;;;;;5058003;28;21796;-68
2023/09/15 05:40:30;;;;;;;10.10;3.72;;;;;;;;;;5056896;28;20036;-68
2023/09/15 05:42:58;;;;;;;8.43;2.97;;;;;;;;;;5056734;28;20028;-68
2023/09/15 05:45:24;;;;;;;5.40;2.65;;;;;;;;;;5055507;28;20668;-68
2023/09/15 05:47:50;;;;;;;8.50;3.17;;;;;;;;;;5055051;28;20058;-68
2023/09/15 05:50:16;;;;;;;7.25;3.03;;;;;;;;;;5056267;28;20557;-68
2023/09/15 05:52:42;;;;;;;10.05;3.15;;;;;;;;;;5055722;28;20124;-68
2023/09/15 05:55:09;;;;;;;8.23;2.92;;;;;;;;;;5057086;28;20136;-68
2023/09/15 05:57:36;;;;;;;7.78;3.10;;;;;;;;;;5055760;28;20449;-68
2023/09/15 06:00:02;;;;;;;7.80;3.13;;;;;;;;;;5054120;28;20032;-69
2023/09/15 06:02:28;;;;;;;6.30;3.00;;;;;;;;;;5055531;28;20024;-68
2023/09/15 06:04:54;;;;;;;8.30;3.60;;;;;;;;;;5055295;28;20995;-68
2023/09/15 06:07:21;;;;;;;8.93;3.58;;;;;;;;;;5055228;28;20064;-68
2023/09/15 06:09:50;;;;;;;7.75;3.38;;;;;;;;;;5055974;28;20044;-68
2023/09/15 06:12:16;;;;;;;8.48;3.17;;;;;;;;;;5057492;28;20701;-68
2023/09/15 06:14:42;;;;;;;8.43;3.65;;;;;;;;;;5057555;28;20058;-68
2023/09/15 06:17:08;;;;;;;12.45;3.55;;;;;;;;;;5055327;28;20024;-68
2023/09/15 06:19:34;;;;;;;7.78;3.85;;;;;;;;;;5055827;28;20028;-68
2023/09/15 06:22:00;;;;;;;8.05;2.88;;;;;;;;;;5055653;28;20047;-68
2023/09/15 06:24:26;;;;;;;9.10;3.75;;;;;;;;;;5056432;28;20036;-68
2023/09/15 06:26:54;;;;;;;8.68;3.80;;;;;;;;;;5056243;28;20063;-68
2023/09/15 06:29:21;;;;;;;11.50;4.03;;;;;;;;;;5056337;28;20032;-68
2023/09/15 06:31:47;;;;;;;8.20;3.70;;;;;;;;;;5056450;28;20031;-68
2023/09/15 06:34:13;;;;;;;7.75;3.53;;;;;;;;;;5054912;28;20048;-68
2023/09/15 06:36:39;;;;;;;8.48;3.72;;;;;;;;;;5055700;28;20028;-68
2023/09/15 06:39:07;;;;;;;7.65;3.58;;;;;;;;;;5055505;28;20048;-68
2023/09/15 06:41:33;;;;;;;7.60;3.85;;;;;;;;;;5055041;28;20660;-68
2023/09/15 06:43:59;;;;;;;7.95;4.35;;;;;;;;;;5056052;28;20032;-68
2023/09/15 06:46:26;;;;;;;10.35;4.40;;;;;;;;;;5055891;28;20558;-68
2023/09/15 06:48:53;;;;;;;8.35;3.65;;;;;;;;;;5055902;28;20056;-68
2023/09/15 06:51:19;;;;;;;9.50;4.03;;;;;;;;;;5055237;28;20073;-68
2023/09/15 06:53:45;;;;;;;9.25;3.63;;;;;;;;;;5055950;28;20028;-68
2023/09/15 06:56:11;;;;;;;11.82;4.15;;;;;;;;;;5055668;28;20051;-68
2023/09/15 06:58:37;;;;;;;8.57;3.25;;;;;;;;;;5054318;28;20048;-68
2023/09/15 07:01:04;;;;;;;8.00;3.47;;;;;;;;;;5055478;28;20035;-68
2023/09/15 07:03:30;;;;;;;7.90;3.75;;;;;;;;;;5056128;28;20027;-68
2023/09/15 07:05:56;;;;;;;9.55;3.95;;;;;;;;;;5054390;28;20107;-68
2023/09/15 07:08:22;;;;;;;9.00;4.38;;;;;;;;;;5054545;28;20067;-68
2023/09/15 07:10:51;;;;;;;10.73;4.20;;;;;;;;;;5054975;28;20483;-68
2023/09/15 07:13:17;;;;;;;8.93;3.88;;;;;;;;;;5053936;28;20368;-68
2023/09/15 07:15:45;;;;;;;7.70;4.07;;;;;;;;;;5052985;28;20032;-68
2023/09/15 07:18:11;;;;;;;6.05;3.35;;;;;;;;;;5054798;28;20036;-68
2023/09/15 07:20:37;;;;;;;11.60;4.53;;;;;;;;;;5055132;28;20024;-68
2023/09/15 07:23:04;;;;;;;7.53;3.97;;;;;;;;;;5053186;28;20083;-68
2023/09/15 07:25:30;;;;;;;8.82;3.72;;;;;;;;;;5051594;28;20040;-68
2023/09/15 07:27:56;;;;;;;7.65;3.63;;;;;;;;;;5054207;28;20032;-68
2023/09/15 07:30:22;;;;;;;13.45;4.15;;;;;;;;;;5052958;28;20043;-68
2023/09/15 07:32:48;;;;;;;12.68;4.20;;;;;;;;;;5053146;28;20173;-68
2023/09/15 07:35:15;;;;;;;8.38;3.80;;;;;;;;;;5055176;28;21641;-68
2023/09/15 07:37:42;;;;;;;7.45;3.78;;;;;;;;;;5054855;28;20043;-68
2023/09/15 07:40:08;;;;;;;8.05;3.60;;;;;;;;;;5056959;28;20063;-68
2023/09/15 07:42:35;;;;;;;10.10;4.20;;;;;;;;;;5062489;28;20031;-68
2023/09/15 07:45:02;;;;;;;12.75;3.70;;;;;;;;;;5062568;28;20107;-68
2023/09/15 07:47:28;;;;;;;9.32;4.10;;;;;;;;;;5061851;28;20032;-68
2023/09/15 07:49:55;;;;;;;8.65;3.42;;;;;;;;;;5061326;28;20132;-68
2023/09/15 07:52:24;;;;;;;9.00;3.90;;;;;;;;;;5062332;28;20036;-68
2023/09/15 07:54:50;;;;;;;13.38;3.15;;;;;;;;;;5062797;28;20032;-68
2023/09/15 07:57:16;;;;;;;7.35;3.10;;;;;;;;;;5063363;28;20032;-68
2023/09/15 07:59:42;;;;;;;8.02;3.30;;;;;;;;;;5062638;28;20039;-68
2023/09/15 08:02:08;;;;;;;8.70;3.20;;;;;;;;;;5062402;28;20032;-68
2023/09/15 08:04:35;;;;;;;10.05;3.45;;;;;;;;;;5062853;28;20037;-68
2023/09/15 08:07:03;;;;;;;6.30;3.25;;;;;;;;;;5062280;28;21255;-68
2023/09/15 08:09:29;;;;;;;7.57;3.10;;;;;;;;;;5062790;28;20166;-68
2023/09/15 08:11:59;;;;;;;10.32;3.42;;;;;;;;;;5062421;28;20055;-68
2023/09/15 08:14:26;;;;;;;8.85;3.05;;;;;;;;;;5063008;28;20070;-68
2023/09/15 08:16:52;;;;;;;7.00;2.85;;;;;;;;;;5062648;28;20127;-68
2023/09/15 08:19:19;;;;;;;10.80;3.47;;;;;;;;;;5062860;28;20082;-68
2023/09/15 08:21:45;;;;;;;7.32;2.92;;;;;;;;;;5062593;28;20029;-68
2023/09/15 08:24:11;;;;;;;9.10;3.08;;;;;;;;;;5063368;28;20036;-68
2023/09/15 08:26:38;;;;;;;12.65;3.40;;;;;;;;;;5062815;28;20024;-68
2023/09/15 08:29:04;;;;;;;8.98;3.25;;;;;;;;;;5062564;28;20459;-68
2023/09/15 08:31:31;;;;;;;7.07;2.58;;;;;;;;;;5063331;28;20028;-68
2023/09/15 08:33:57;;;;;;;8.10;2.72;;;;;;;;;;5062590;28;20572;-68
2023/09/15 08:36:26;;;;;;;8.85;2.55;;;;;;;;;;5062392;28;20025;-68
2023/09/15 08:38:52;;;;;;;8.23;2.47;;;;;;;;;;5060023;28;20043;-68
2023/09/15 08:41:25;;;;;;;9.52;2.65;;;;;;;;;;5065748;28;20029;-68
2023/09/15 08:43:52;;;;;;;8.20;3.03;;;;;;;;;;5066656;28;20119;-68
2023/09/15 08:46:19;;;;;;;6.78;2.55;;;;;;;;;;5065593;28;20040;-68
2023/09/15 08:48:49;;;;;;;6.90;2.33;;;;;;;;;;5066438;28;20089;-68
2023/09/15 08:51:16;;;;;;;9.30;2.75;;;;;;;;;;5066736;28;20046;-68
2023/09/15 08:53:42;;;;;;;8.38;2.22;;;;;;;;;;5066241;28;20047;-68
2023/09/15 08:56:08;;;;;;;6.50;2.85;;;;;;;;;;5066393;28;20549;-68
2023/09/15 08:58:35;;;;;;;6.10;2.58;;;;;;;;;;5066537;28;21930;-68
2023/09/15 09:01:02;;;;;;;10.40;2.65;;;;;;;;;;5066443;28;20032;-68
2023/09/15 09:03:28;;;;;;;7.10;2.67;;;;;;;;;;5065747;28;20111;-68
2023/09/15 09:05:55;;;;;;;8.43;2.95;;;;;;;;;;5065798;28;20047;-68
2023/09/15 09:08:23;;;;;;;6.97;2.50;;;;;;;;;;5065598;28;20032;-68
2023/09/15 09:10:50;;;;;;;8.95;2.55;;;;;;;;;;5065726;28;20032;-68
2023/09/15 09:13:16;;;;;;;6.45;2.83;;;;;;;;;;5065773;28;20675;-68
2023/09/15 09:15:42;;;;;;;7.63;2.45;;;;;;;;;;5066329;28;20032;-68
2023/09/15 09:18:15;;;;;;;6.53;2.92;;;;;;;;;;5066079;28;20070;-63
2023/09/15 09:20:41;;;;;;;6.43;2.83;;;;;;;;;;5066195;28;21763;-63
2023/09/15 09:23:09;;;;;;;6.25;2.50;;;;;;;;;;5065951;28;20032;-63
2023/09/15 09:25:35;;;;;;;6.07;2.50;;;;;;;;;;5065460;28;20029;-63
2023/09/15 09:28:03;;;;;;;12.15;3.15;;;;;;;;;;5064322;28;20074;-63
2023/09/15 09:30:29;;;;;;;8.25;2.75;;;;;;;;;;5061517;28;20040;-63
2023/09/15 09:32:56;;;;;;;5.38;2.22;;;;;;;;;;5064461;28;20036;-63
2023/09/15 09:35:22;;;;;;;11.20;3.45;;;;;;;;;;5064169;28;20066;-63
2023/09/15 09:37:49;;;;;;;7.60;2.67;;;;;;;;;;5062932;28;20040;-63
2023/09/15 09:40:17;;;;;;;7.10;2.53;;;;;;;;;;5064640;28;20043;-63
2023/09/15 09:42:44;;;;;;;6.72;2.92;;;;;;;;;;5064039;28;20034;-63
2023/09/15 09:45:10;;;;;;;7.18;2.70;;;;;;;;;;5065171;28;20042;-63
2023/09/15 09:47:36;;;;;;;8.77;2.88;;;;;;;;;;5065730;28;20144;-63
2023/09/15 09:50:04;;;;;;;11.93;2.75;;;;;;;;;;5065807;28;20740;-63
2023/09/15 09:52:30;;;;;;;9.60;2.67;;;;;;;;;;5063153;28;20605;-63
2023/09/15 09:54:56;;;;;;;6.53;3.00;;;;;;;;;;5065112;28;20129;-63
2023/09/15 09:57:22;;;;;;;6.85;2.95;;;;;;;;;;5064591;28;20047;-63
2023/09/15 09:59:48;;;;;;;6.80;2.80;;;;;;;;;;5064988;28;20125;-63
2023/09/15 10:02:14;;;;;;;7.25;2.65;;;;;;;;;;5065406;28;20028;-63
2023/09/15 10:04:40;;;;;;;6.50;2.45;;;;;;;;;;5064708;28;20051;-63
2023/09/15 10:07:06;;;;;;;9.45;3.25;;;;;;;;;;5065533;28;20180;-63
2023/09/15 10:09:32;;;;;;;7.88;2.50;;;;;;;;;;5065178;28;20036;-63
2023/09/15 10:11:58;;;;;;;8.73;3.00;;;;;;;;;;5065322;28;20032;-63
2023/09/15 10:14:26;;;;;;;7.07;2.58;;;;;;;;;;5064595;28;20058;-63
2023/09/15 10:16:52;;;;;;;9.82;3.15;;;;;;;;;;5063443;28;20475;-63
2023/09/15 10:19:19;;;;;;;10.65;3.97;;;;;;;;;;5059920;28;20036;-63
2023/09/15 10:21:45;;;;;;;7.50;3.20;;;;;;;;;;5063738;28;21785;-63
2023/09/15 10:24:12;;;;;;;7.18;3.10;;;;;;;;;;5061679;28;20036;-63
2023/09/15 10:26:44;;;;;;;8.35;3.22;;;;;;;;;;5064225;28;20023;-63
2023/09/15 10:29:13;;;;;;;12.75;3.58;;;;;;;;;;5064898;28;21381;-63
2023/09/15 10:31:45;;;;;;;8.82;2.60;;;;;;;;;;5064915;28;20036;-63
2023/09/15 10:34:12;;;;;;;7.15;2.63;;;;;;;;;;5064096;28;20028;-63
2023/09/15 10:36:41;;;;;;;7.03;2.72;;;;;;;;;;5064718;28;20032;-63
2023/09/15 10:39:12;;;;;;;6.57;3.28;;;;;;;;;;5062153;28;20442;-63
2023/09/15 10:41:38;;;;;;;5.05;2.78;;;;;;;;;;5064603;28;20028;-63
2023/09/15 10:44:04;;;;;;;6.47;3.10;;;;;;;;;;5064299;28;20123;-63
2023/09/15 10:46:35;;;;;;;4.68;2.10;;;;;;;;;;5064288;28;20043;-63
2023/09/15 10:49:12;;;;;;;6.93;2.53;;;;;;;;;;5063869;28;20048;-63
2023/09/15 10:51:40;;;;;;;6.40;2.47;;;;;;;;;;5064337;28;20028;-63
2023/09/15 10:54:06;;;;;;;9.27;2.65;;;;;;;;;;5063261;28;20032;-63
2023/09/15 10:56:32;;;;;;;8.07;2.70;;;;;;;;;;5063085;28;20040;-63
2023/09/15 10:58:59;;;;;;;10.25;3.00;;;;;;;;;;5063901;28;20124;-63
2023/09/15 11:01:25;;;;;;;6.20;2.60;;;;;;;;;;5063009;28;20510;-63
2023/09/15 11:03:51;;;;;;;10.18;2.58;;;;;;;;;;5062641;28;20128;-63
2023/09/15 11:06:18;;;;;;;5.55;2.83;;;;;;;;;;5062809;28;20047;-63
2023/09/15 11:08:44;;;;;;;7.18;2.28;;;;;;;;;;5063161;28;20495;-63
2023/09/15 11:11:10;;;;;;;11.50;3.50;;;;;;;;;;5062053;28;20502;-63
2023/09/15 11:13:37;;;;;;;6.63;2.97;;;;;;;;;;5063571;28;20135;-63
2023/09/15 11:16:03;;;;;;;8.93;3.00;;;;;;;;;;5063818;28;20993;-63
2023/09/15 11:18:33;;;;;;;9.85;2.72;;;;;;;;;;5062912;28;20864;-63
2023/09/15 11:20:59;;;;;;;7.63;2.50;;;;;;;;;;5061344;28;20036;-64
2023/09/15 11:23:26;;;;;;;7.68;2.67;;;;;;;;;;5061405;28;20028;-64
2023/09/15 11:26:05;;;;;;;7.60;3.10;;;;;;;;;;5062706;28;20451;-64
2023/09/15 11:28:35;;;;;;;9.05;2.55;;;;;;;;;;5062266;28;20055;-64
2023/09/15 11:31:03;;;;;;;6.63;2.65;;;;;;;;;;5062377;28;20912;-64
2023/09/15 11:33:30;;;;;;;5.40;2.25;;;;;;;;;;5062630;28;20134;-64
2023/09/15 11:35:57;;;;;;;6.20;2.00;;;;;;;;;;5060313;28;20036;-63
2023/09/15 11:38:23;;;;;;;7.63;2.58;;;;;;;;;;5061895;28;20035;-64
2023/09/15 11:40:50;;;;;;;5.38;2.80;;;;;;;;;;5061594;28;20069;-64
2023/09/15 11:43:17;;;;;;;6.75;2.80;;;;;;;;;;5059958;28;20063;-63
2023/09/15 11:45:43;;;;;;;6.10;2.38;;;;;;;;;;5062137;28;20028;-64
2023/09/15 11:48:11;;;;;;;7.80;2.25;;;;;;;;;;5061668;28;20604;-64
2023/09/15 11:50:37;;;;;;;5.85;2.20;;;;;;;;;;5062385;28;20050;-64
2023/09/15 11:53:03;;;;;;;8.73;2.70;;;;;;;;;;5060065;28;20139;-64
2023/09/15 11:55:30;;;;;;;5.10;2.15;;;;;;;;;;5062188;28;20145;-64
2023/09/15 11:57:56;;;;;;;6.43;2.30;;;;;;;;;;5061481;28;20044;-64
2023/09/15 12:00:24;;;;;;;4.53;2.25;;;;;;;;;;5062087;28;20032;-64
2023/09/15 12:02:52;;;;;;;6.82;2.30;;;;;;;;;;5061746;28;20111;-68
2023/09/15 12:05:20;;;;;;;5.57;2.20;;;;;;;;;;5061373;28;20060;-68
2023/09/15 12:07:46;;;;;;;5.80;1.85;;;;;;;;;;5059697;28;20047;-64
2023/09/15 12:10:15;;;;;;;8.05;2.50;;;;;;;;;;5060761;28;20058;-63
2023/09/15 12:12:43;;;;;;;5.75;2.00;;;;;;;;;;5061109;28;20051;-63
2023/09/15 12:15:09;;;;;;;7.97;2.33;;;;;;;;;;5062511;28;20104;-63
2023/09/15 12:17:36;;;;;;;5.18;2.08;;;;;;;;;;5065531;28;20028;-63
2023/09/15 12:20:06;;;;;;;7.82;2.35;;;;;;;;;;5067037;28;21753;-64
2023/09/15 12:22:32;;;;;;;14.77;3.78;;;;;;;;;;5067960;28;20028;-63
2023/09/15 12:24:59;;;;;;;6.47;2.38;;;;;;;;;;5068761;28;20045;-63
2023/09/15 12:27:26;;;;;;;6.35;2.40;;;;;;;;;;5068842;28;20073;-63
2023/09/15 12:29:55;;;;;;;4.50;2.00;;;;;;;;;;5068918;28;20128;-63
2023/09/15 12:32:27;;;;;;;5.72;2.30;;;;;;;;;;5068752;28;20300;-63
2023/09/15 12:34:54;;;;;;;5.20;1.83;;;;;;;;;;5069287;28;20094;-63
2023/09/15 12:37:20;;;;;;;7.20;2.55;;;;;;;;;;5068622;28;20020;-63
2023/09/15 12:39:46;;;;;;;5.78;2.25;;;;;;;;;;5069092;28;20032;-63
2023/09/15 12:42:13;;;;;;;6.82;2.10;;;;;;;;;;5068809;28;20047;-63
2023/09/15 12:44:39;;;;;;;7.20;2.25;;;;;;;;;;5066769;28;20131;-63
2023/09/15 12:47:05;;;;;;;5.38;2.10;;;;;;;;;;5069143;28;20028;-63
2023/09/15 12:49:32;;;;;;;7.47;2.70;;;;;;;;;;5068039;28;20732;-63
2023/09/15 12:51:58;;;;;;;7.45;1.92;;;;;;;;;;5068603;28;20030;-63
2023/09/15 12:54:24;;;;;;;8.98;2.50;;;;;;;;;;5068356;28;20050;-63
2023/09/15 12:56:53;;;;;;;8.00;2.10;;;;;;;;;;5068241;28;20031;-63
2023/09/15 12:59:22;;;;;;;6.75;1.70;;;;;;;;;;5068896;28;20077;-63
2023/09/15 13:01:48;;;;;;;5.57;2.05;;;;;;;;;;5069222;28;20563;-63
2023/09/15 13:04:14;;;;;;;5.55;2.25;;;;;;;;;;5069163;28;20035;-63
2023/09/15 13:06:40;;;;;;;9.10;2.63;;;;;;;;;;5067803;28;20581;-63
2023/09/15 13:09:08;;;;;;;10.43;2.28;;;;;;;;;;5068106;28;20032;-62
2023/09/15 13:11:35;;;;;;;7.78;2.38;;;;;;;;;;5068488;28;20127;-63
2023/09/15 13:14:02;;;;;;;5.75;2.30;;;;;;;;;;5067584;28;20497;-63
2023/09/15 13:16:31;;;;;;;6.55;2.25;;;;;;;;;;5065700;28;20032;-63
2023/09/15 13:18:57;;;;;;;9.30;2.50;;;;;;;;;;5066803;28;20645;-63
2023/09/15 13:21:23;;;;;;;4.00;1.95;;;;;;;;;;5065949;28;20699;-63
2023/09/15 13:23:50;;;;;;;6.72;2.28;;;;;;;;;;5065116;28;20121;-62
2023/09/15 13:26:16;;;;;;;7.05;2.55;;;;;;;;;;5062769;28;20063;-63
2023/09/15 13:28:42;;;;;;;7.75;2.15;;;;;;;;;;5062599;28;20047;-63
2023/09/15 13:31:08;;;;;;;5.72;1.92;;;;;;;;;;5061879;28;20063;-63
2023/09/15 13:33:35;;;;;;;5.95;2.25;;;;;;;;;;5061760;28;20121;-63
2023/09/15 13:36:02;;;;;;;5.60;2.00;;;;;;;;;;5062958;28;20042;-63
2023/09/15 13:38:28;;;;;;;7.53;2.33;;;;;;;;;;5064076;28;21028;-63
2023/09/15 13:40:54;;;;;;;7.10;2.30;;;;;;;;;;5063853;28;20033;-63
2023/09/15 13:43:21;;;;;;;5.70;2.35;;;;;;;;;;5062295;28;20031;-63
2023/09/15 13:45:53;;;;;;;8.65;2.30;;;;;;;;;;5060371;28;20117;-63
2023/09/15 13:48:20;;;;;;;4.53;2.17;;;;;;;;;;5061884;28;20024;-63
2023/09/15 13:50:46;;;;;;;6.07;2.25;;;;;;;;;;5062726;28;20135;-63
2023/09/15 13:53:12;;;;;;;5.85;1.90;;;;;;;;;;5063681;28;20126;-63
2023/09/15 13:55:39;;;;;;;4.47;1.70;;;;;;;;;;5065203;28;20051;-63
2023/09/15 13:58:05;;;;;;;5.70;2.08;;;;;;;;;;5065077;28;20737;-63
2023/09/15 14:00:31;;;;;;;6.40;2.35;;;;;;;;;;5065206;28;20035;-63
2023/09/15 14:02:57;;;;;;;4.95;1.80;;;;;;;;;;5063218;28;20032;-63
2023/09/15 14:05:23;;;;;;;9.75;2.15;;;;;;;;;;5064355;28;20036;-63
2023/09/15 14:07:50;;;;;;;4.50;1.92;;;;;;;;;;5064995;28;20024;-63
2023/09/15 14:10:17;;;;;;;5.60;2.10;;;;;;;;;;5064390;28;20032;-63
2023/09/15 14:12:44;;;;;;;6.93;1.95;;;;;;;;;;5063573;28;20051;-63
2023/09/15 14:15:11;;;;;;;7.00;1.90;;;;;;;;;;5058727;28;20038;-63
2023/09/15 14:17:37;;;;;;;5.97;2.38;;;;;;;;;;5063167;28;20035;-63
2023/09/15 14:20:04;;;;;;;7.72;1.90;;;;;;;;;;5064562;28;20048;-63
2023/09/15 14:22:30;;;;;;;9.25;2.35;;;;;;;;;;5064183;28;20216;-63
2023/09/15 14:24:56;;;;;;;5.22;2.10;;;;;;;;;;5063491;28;20039;-63
2023/09/15 14:27:23;;;;;;;5.13;1.88;;;;;;;;;;5063459;28;20031;-63
2023/09/15 14:29:49;;;;;;;6.47;2.00;;;;;;;;;;5064481;28;20032;-62
2023/09/15 14:32:15;;;;;;;5.78;2.22;;;;;;;;;;5063317;28;20058;-63
2023/09/15 14:34:42;;;;;;;6.50;2.75;;;;;;;;;;5063029;28;20748;-63
2023/09/15 14:37:08;;;;;;;9.88;2.50;;;;;;;;;;5062972;28;20064;-63
2023/09/15 14:39:34;;;;;;;7.53;2.35;;;;;;;;;;5062896;28;20034;-63
2023/09/15 14:42:00;;;;;;;5.38;2.30;;;;;;;;;;5064181;28;20118;-63